sensor_id;sensor_type;location;lat;lon;timestamp;temperature;humidity
8180;DHT22;4131;48.810;11.892;2023-03-01T00:01:24;-0.30;99.90
8180;DHT22;4131;48.810;11.892;2023-03-01T00:03:55;-0.40;99.90
8180;DHT22;4131;48.810;11.892;2023-03-01T00:08:52;-0.40;99.90
8180;DHT22;4131;48.810;11.892;2023-03-01T00:11:23;-0.50;99.90
8180;DHT22;4131;48.810;11.892;2023-03-01T00:13:53;-0.50;99.90
8180;DHT22;4131;48.810;11.892;2023-03-01T00:16:26;-0.50;99.90
8180;DHT22;4131;48.810;11.892;2023-03-01T00:18:57;-0.60;99.90
8180;DHT22;4131;48.810;11.892;2023-03-01T00:21:26;-0.60;99.90
8180;DHT22;4131;48.810;11.892;2023-03-01T00:26:24;-0.70;99.90
8180;DHT22;4131;48.810;11.892;2023-03-01T00:31:23;-0.70;99.90
8180;DHT22;4131;48.810;11.892;2023-03-01T00:33:53;-0.70;99.90
8180;DHT22;4131;48.810;11.892;2023-03-01T00:36:27;-0.70;99.90
8180;DHT22;4131;48.810;11.892;2023-03-01T00:46:24;-0.60;99.90
8180;DHT22;4131;48.810;11.892;2023-03-01T00:48:52;-0.60;99.90
8180;DHT22;4131;48.810;11.892;2023-03-01T00:51:25;-0.60;99.90
8180;DHT22;4131;48.810;11.892;2023-03-01T00:53:55;-0.60;99.90
8180;DHT22;4131;48.810;11.892;2023-03-01T01:01:23;-0.40;99.90
8180;DHT22;4131;48.810;11.892;2023-03-01T01:03:56;-0.40;99.90
8180;DHT22;4131;48.810;11.892;2023-03-01T01:06:28;-0.40;99.90
8180;DHT22;4131;48.810;11.892;2023-03-01T01:08:57;-0.50;99.90
8180;DHT22;4131;48.810;11.892;2023-03-01T01:11:27;-0.50;99.90
8180;DHT22;4131;48.810;11.892;2023-03-01T01:13:56;-0.40;99.90
8180;DHT22;4131;48.810;11.892;2023-03-01T01:16:26;-0.40;99.90
8180;DHT22;4131;48.810;11.892;2023-03-01T01:21:25;-0.40;99.90
8180;DHT22;4131;48.810;11.892;2023-03-01T01:23:54;-0.40;99.90
8180;DHT22;4131;48.810;11.892;2023-03-01T01:26:24;-0.40;99.90
8180;DHT22;4131;48.810;11.892;2023-03-01T01:31:22;1.70;99.90
8180;DHT22;4131;48.810;11.892;2023-03-01T01:33:51;-0.50;99.90
8180;DHT22;4131;48.810;11.892;2023-03-01T01:38:49;-0.50;99.90
8180;DHT22;4131;48.810;11.892;2023-03-01T01:43:47;-0.40;99.90
8180;DHT22;4131;48.810;11.892;2023-03-01T01:46:29;-0.50;99.90
8180;DHT22;4131;48.810;11.892;2023-03-01T01:49:01;-0.50;99.90
8180;DHT22;4131;48.810;11.892;2023-03-01T01:51:32;-0.50;99.90
8180;DHT22;4131;48.810;11.892;2023-03-01T01:54:10;-1.20;99.90
8180;DHT22;4131;48.810;11.892;2023-03-01T01:56:44;-0.60;99.90
8180;DHT22;4131;48.810;11.892;2023-03-01T02:06:46;-0.90;99.90
8180;DHT22;4131;48.810;11.892;2023-03-01T02:09:19;-1.00;99.90
8180;DHT22;4131;48.810;11.892;2023-03-01T02:11:48;-1.10;99.90
8180;DHT22;4131;48.810;11.892;2023-03-01T02:16:45;-1.20;99.90
8180;DHT22;4131;48.810;11.892;2023-03-01T02:19:26;-1.30;99.90
8180;DHT22;4131;48.810;11.892;2023-03-01T02:22:01;-1.40;99.90
8180;DHT22;4131;48.810;11.892;2023-03-01T02:24:40;-1.50;99.90
8180;DHT22;4131;48.810;11.892;2023-03-01T02:27:10;-1.50;99.90
8180;DHT22;4131;48.810;11.892;2023-03-01T02:29:40;-1.60;99.90
8180;DHT22;4131;48.810;11.892;2023-03-01T02:32:11;-1.70;99.90
8180;DHT22;4131;48.810;11.892;2023-03-01T02:37:10;-1.70;99.90
8180;DHT22;4131;48.810;11.892;2023-03-01T02:39:42;-1.80;99.90
8180;DHT22;4131;48.810;11.892;2023-03-01T02:42:15;-1.90;99.90
8180;DHT22;4131;48.810;11.892;2023-03-01T02:52:38;-1.90;99.90
8180;DHT22;4131;48.810;11.892;2023-03-01T02:55:13;-1.90;99.90
8180;DHT22;4131;48.810;11.892;2023-03-01T02:57:43;-1.90;99.90
8180;DHT22;4131;48.810;11.892;2023-03-01T03:00:16;-1.90;99.90
8180;DHT22;4131;48.810;11.892;2023-03-01T03:02:47;-2.00;99.90
8180;DHT22;4131;48.810;11.892;2023-03-01T03:05:18;-2.00;99.90
8180;DHT22;4131;48.810;11.892;2023-03-01T03:07:47;-2.10;99.90
8180;DHT22;4131;48.810;11.892;2023-03-01T03:10:18;-2.10;99.90
8180;DHT22;4131;48.810;11.892;2023-03-01T03:12:49;-2.20;99.90
8180;DHT22;4131;48.810;11.892;2023-03-01T03:15:20;-2.20;99.90
8180;DHT22;4131;48.810;11.892;2023-03-01T03:20:19;-2.20;99.90
8180;DHT22;4131;48.810;11.892;2023-03-01T03:22:49;-2.30;99.90
8180;DHT22;4131;48.810;11.892;2023-03-01T03:25:18;-2.30;99.90
8180;DHT22;4131;48.810;11.892;2023-03-01T03:27:48;-2.30;99.90
8180;DHT22;4131;48.810;11.892;2023-03-01T03:30:19;-2.30;99.90
8180;DHT22;4131;48.810;11.892;2023-03-01T03:35:21;-2.40;99.90
8180;DHT22;4131;48.810;11.892;2023-03-01T03:37:51;-2.40;99.90
8180;DHT22;4131;48.810;11.892;2023-03-01T03:40:41;-2.50;99.90
8180;DHT22;4131;48.810;11.892;2023-03-01T03:43:11;-2.50;99.90
8180;DHT22;4131;48.810;11.892;2023-03-01T03:45:41;-2.50;99.90
8180;DHT22;4131;48.810;11.892;2023-03-01T03:50:40;-2.50;99.90
8180;DHT22;4131;48.810;11.892;2023-03-01T03:53:11;-2.60;99.90
8180;DHT22;4131;48.810;11.892;2023-03-01T03:58:09;-2.70;99.90
8180;DHT22;4131;48.810;11.892;2023-03-01T04:00:39;-2.70;99.90
8180;DHT22;4131;48.810;11.892;2023-03-01T04:03:10;-2.70;99.90
8180;DHT22;4131;48.810;11.892;2023-03-01T04:10:36;-2.80;99.90
8180;DHT22;4131;48.810;11.892;2023-03-01T04:20:34;-3.80;99.90
8180;DHT22;4131;48.810;11.892;2023-03-01T04:23:04;-2.90;99.90
8180;DHT22;4131;48.810;11.892;2023-03-01T04:25:41;-2.90;99.90
8180;DHT22;4131;48.810;11.892;2023-03-01T04:28:09;-2.90;99.90
8180;DHT22;4131;48.810;11.892;2023-03-01T04:30:38;-2.90;99.90
8180;DHT22;4131;48.810;11.892;2023-03-01T04:33:08;-3.00;99.90
8180;DHT22;4131;48.810;11.892;2023-03-01T04:35:37;-3.00;99.90
8180;DHT22;4131;48.810;11.892;2023-03-01T04:38:07;-3.00;99.90
8180;DHT22;4131;48.810;11.892;2023-03-01T04:40:35;-3.00;99.90
8180;DHT22;4131;48.810;11.892;2023-03-01T04:43:04;-3.00;99.90
8180;DHT22;4131;48.810;11.892;2023-03-01T04:45:32;-3.10;99.90
8180;DHT22;4131;48.810;11.892;2023-03-01T04:50:30;-3.10;99.90
8180;DHT22;4131;48.810;11.892;2023-03-01T04:53:00;-3.10;99.90
8180;DHT22;4131;48.810;11.892;2023-03-01T04:55:28;-3.10;99.90
8180;DHT22;4131;48.810;11.892;2023-03-01T05:02:55;-3.10;99.90
8180;DHT22;4131;48.810;11.892;2023-03-01T05:05:26;-3.20;99.90
8180;DHT22;4131;48.810;11.892;2023-03-01T05:07:55;-3.20;99.90
8180;DHT22;4131;48.810;11.892;2023-03-01T05:10:26;-3.20;99.90
8180;DHT22;4131;48.810;11.892;2023-03-01T05:12:56;-3.20;99.90
8180;DHT22;4131;48.810;11.892;2023-03-01T05:15:25;-3.20;99.90
8180;DHT22;4131;48.810;11.892;2023-03-01T05:17:55;-3.20;99.90
8180;DHT22;4131;48.810;11.892;2023-03-01T05:22:56;-3.20;99.90
8180;DHT22;4131;48.810;11.892;2023-03-01T05:25:27;-3.30;99.90
8180;DHT22;4131;48.810;11.892;2023-03-01T05:28:00;-3.20;99.90
8180;DHT22;4131;48.810;11.892;2023-03-01T05:33:00;-3.20;99.90
8180;DHT22;4131;48.810;11.892;2023-03-01T05:40:29;-3.30;99.90
8180;DHT22;4131;48.810;11.892;2023-03-01T05:45:26;-3.30;99.90
8180;DHT22;4131;48.810;11.892;2023-03-01T05:50:25;-3.30;99.90
8180;DHT22;4131;48.810;11.892;2023-03-01T05:52:58;-3.30;99.90
8180;DHT22;4131;48.810;11.892;2023-03-01T05:55:29;-3.30;99.90
8180;DHT22;4131;48.810;11.892;2023-03-01T05:57:59;-3.30;99.90
8180;DHT22;4131;48.810;11.892;2023-03-01T06:00:28;-3.10;99.90
8180;DHT22;4131;48.810;11.892;2023-03-01T06:05:26;-3.20;99.90
8180;DHT22;4131;48.810;11.892;2023-03-01T06:12:53;-3.30;99.90
8180;DHT22;4131;48.810;11.892;2023-03-01T06:15:22;-3.30;99.90
8180;DHT22;4131;48.810;11.892;2023-03-01T06:20:22;-3.30;99.90
8180;DHT22;4131;48.810;11.892;2023-03-01T06:25:20;-3.20;99.90
8180;DHT22;4131;48.810;11.892;2023-03-01T06:30:21;-3.10;99.90
8180;DHT22;4131;48.810;11.892;2023-03-01T06:35:19;-3.00;99.90
8180;DHT22;4131;48.810;11.892;2023-03-01T06:40:16;-2.90;99.90
8180;DHT22;4131;48.810;11.892;2023-03-01T06:42:48;-2.80;99.90
8180;DHT22;4131;48.810;11.892;2023-03-01T06:45:20;-2.80;99.90
8180;DHT22;4131;48.810;11.892;2023-03-01T06:50:17;-2.70;99.90
8180;DHT22;4131;48.810;11.892;2023-03-01T06:52:46;-2.60;99.90
8180;DHT22;4131;48.810;11.892;2023-03-01T07:00:11;-2.50;99.90
8180;DHT22;4131;48.810;11.892;2023-03-01T07:02:41;-2.40;99.90
8180;DHT22;4131;48.810;11.892;2023-03-01T07:10:07;-2.20;99.90
8180;DHT22;4131;48.810;11.892;2023-03-01T07:12:35;-2.10;99.90
8180;DHT22;4131;48.810;11.892;2023-03-01T07:15:04;-2.10;99.90
8180;DHT22;4131;48.810;11.892;2023-03-01T07:20:03;-2.00;99.90
8180;DHT22;4131;48.810;11.892;2023-03-01T07:25:00;-1.90;99.90
8180;DHT22;4131;48.810;11.892;2023-03-01T07:37:23;-1.50;99.90
8180;DHT22;4131;48.810;11.892;2023-03-01T07:39:51;-1.40;99.90
8180;DHT22;4131;48.810;11.892;2023-03-01T07:47:16;-1.10;99.90
8180;DHT22;4131;48.810;11.892;2023-03-01T07:49:44;-1.00;99.90
8180;DHT22;4131;48.810;11.892;2023-03-01T07:54:43;-0.80;99.90
8180;DHT22;4131;48.810;11.892;2023-03-01T08:02:09;-0.40;99.90
8180;DHT22;4131;48.810;11.892;2023-03-01T08:09:35;0.30;99.90
8180;DHT22;4131;48.810;11.892;2023-03-01T08:12:05;0.20;99.90
8180;DHT22;4131;48.810;11.892;2023-03-01T08:19:31;0.50;99.90
8180;DHT22;4131;48.810;11.892;2023-03-01T08:21:59;0.70;99.90
8180;DHT22;4131;48.810;11.892;2023-03-01T08:24:28;1.00;99.90
8180;DHT22;4131;48.810;11.892;2023-03-01T08:26:56;1.30;99.90
8180;DHT22;4131;48.810;11.892;2023-03-01T08:29:26;1.80;99.90
8180;DHT22;4131;48.810;11.892;2023-03-01T08:31:54;2.10;99.90
8180;DHT22;4131;48.810;11.892;2023-03-01T08:34:22;2.60;99.90
8180;DHT22;4131;48.810;11.892;2023-03-01T08:36:50;3.00;99.90
8180;DHT22;4131;48.810;11.892;2023-03-01T08:39:20;3.20;99.90
8180;DHT22;4131;48.810;11.892;2023-03-01T08:44:16;4.30;99.90
8180;DHT22;4131;48.810;11.892;2023-03-01T08:46:46;4.00;99.90
8180;DHT22;4131;48.810;11.892;2023-03-01T08:49:31;4.40;99.90
8180;DHT22;4131;48.810;11.892;2023-03-01T08:52:01;4.00;99.90
8180;DHT22;4131;48.810;11.892;2023-03-01T08:54:30;3.60;99.90
8180;DHT22;4131;48.810;11.892;2023-03-01T08:59:26;3.60;99.90
8180;DHT22;4131;48.810;11.892;2023-03-01T09:06:54;3.20;99.90
8180;DHT22;4131;48.810;11.892;2023-03-01T09:11:51;3.50;99.90
8180;DHT22;4131;48.810;11.892;2023-03-01T09:14:19;4.20;99.90
8180;DHT22;4131;48.810;11.892;2023-03-01T09:16:47;5.20;99.90
8180;DHT22;4131;48.810;11.892;2023-03-01T09:19:16;5.80;99.90
8180;DHT22;4131;48.810;11.892;2023-03-01T09:21:44;6.70;99.90
8180;DHT22;4131;48.810;11.892;2023-03-01T09:24:21;7.90;99.90
8180;DHT22;4131;48.810;11.892;2023-03-01T09:26:52;8.20;99.90
8180;DHT22;4131;48.810;11.892;2023-03-01T09:29:20;8.80;99.90
8180;DHT22;4131;48.810;11.892;2023-03-01T09:31:49;8.90;99.90
8180;DHT22;4131;48.810;11.892;2023-03-01T09:34:17;8.80;99.90
8180;DHT22;4131;48.810;11.892;2023-03-01T09:36:50;9.70;99.90
8180;DHT22;4131;48.810;11.892;2023-03-01T09:39:20;9.60;99.90
8180;DHT22;4131;48.810;11.892;2023-03-01T09:41:53;10.60;99.90
8180;DHT22;4131;48.810;11.892;2023-03-01T09:44:29;10.20;99.90
8180;DHT22;4131;48.810;11.892;2023-03-01T09:46:59;10.20;99.90
8180;DHT22;4131;48.810;11.892;2023-03-01T09:49:30;10.10;99.90
8180;DHT22;4131;48.810;11.892;2023-03-01T09:52:03;9.90;99.90
8180;DHT22;4131;48.810;11.892;2023-03-01T09:54:33;11.00;99.90
8180;DHT22;4131;48.810;11.892;2023-03-01T09:57:11;11.10;99.90
8180;DHT22;4131;48.810;11.892;2023-03-01T10:02:39;10.70;99.90
8180;DHT22;4131;48.810;11.892;2023-03-01T10:05:20;11.00;99.90
8180;DHT22;4131;48.810;11.892;2023-03-01T10:07:57;10.90;99.90
8180;DHT22;4131;48.810;11.892;2023-03-01T10:10:36;11.20;99.90
8180;DHT22;4131;48.810;11.892;2023-03-01T10:13:17;11.50;99.90
8180;DHT22;4131;48.810;11.892;2023-03-01T10:15:50;11.30;99.90
8180;DHT22;4131;48.810;11.892;2023-03-01T10:18:24;10.40;99.90
8180;DHT22;4131;48.810;11.892;2023-03-01T10:20:55;10.10;99.90
8180;DHT22;4131;48.810;11.892;2023-03-01T10:23:25;9.00;99.90
8180;DHT22;4131;48.810;11.892;2023-03-01T10:26:12;8.30;99.90
8180;DHT22;4131;48.810;11.892;2023-03-01T10:28:51;8.00;99.90
8180;DHT22;4131;48.810;11.892;2023-03-01T10:31:24;7.70;99.90
8180;DHT22;4131;48.810;11.892;2023-03-01T10:38:56;8.90;99.90
8180;DHT22;4131;48.810;11.892;2023-03-01T10:41:26;9.90;99.90
8180;DHT22;4131;48.810;11.892;2023-03-01T10:43:57;10.60;99.90
8180;DHT22;4131;48.810;11.892;2023-03-01T10:46:29;11.70;99.90
8180;DHT22;4131;48.810;11.892;2023-03-01T10:49:14;11.00;99.90
8180;DHT22;4131;48.810;11.892;2023-03-01T10:51:44;11.50;99.90
8180;DHT22;4131;48.810;11.892;2023-03-01T10:54:18;12.50;99.90
8180;DHT22;4131;48.810;11.892;2023-03-01T10:56:49;13.30;99.90
8180;DHT22;4131;48.810;11.892;2023-03-01T10:59:26;12.40;99.90
8180;DHT22;4131;48.810;11.892;2023-03-01T11:02:15;11.90;99.90
8180;DHT22;4131;48.810;11.892;2023-03-01T11:04:59;12.70;99.90
8180;DHT22;4131;48.810;11.892;2023-03-01T11:07:28;13.00;99.90
8180;DHT22;4131;48.810;11.892;2023-03-01T11:09:56;12.30;99.90
8180;DHT22;4131;48.810;11.892;2023-03-01T11:12:26;10.50;99.90
8180;DHT22;4131;48.810;11.892;2023-03-01T11:14:57;11.50;99.90
8180;DHT22;4131;48.810;11.892;2023-03-01T11:17:28;12.10;99.90
8180;DHT22;4131;48.810;11.892;2023-03-01T11:20:10;12.20;99.90
8180;DHT22;4131;48.810;11.892;2023-03-01T11:22:48;12.50;99.90
8180;DHT22;4131;48.810;11.892;2023-03-01T11:25:18;12.70;99.90
8180;DHT22;4131;48.810;11.892;2023-03-01T11:27:49;14.30;99.90
8180;DHT22;4131;48.810;11.892;2023-03-01T11:30:21;13.70;99.90
8180;DHT22;4131;48.810;11.892;2023-03-01T11:33:00;13.60;99.90
8180;DHT22;4131;48.810;11.892;2023-03-01T11:35:32;13.70;99.90
8180;DHT22;4131;48.810;11.892;2023-03-01T11:38:14;13.90;99.90
8180;DHT22;4131;48.810;11.892;2023-03-01T11:40:46;14.40;99.90
8180;DHT22;4131;48.810;11.892;2023-03-01T11:43:28;13.90;99.90
8180;DHT22;4131;48.810;11.892;2023-03-01T11:46:26;14.70;99.90
8180;DHT22;4131;48.810;11.892;2023-03-01T11:49:03;15.10;99.90
8180;DHT22;4131;48.810;11.892;2023-03-01T11:51:41;14.40;99.90
8180;DHT22;4131;48.810;11.892;2023-03-01T11:54:21;14.10;99.90
8180;DHT22;4131;48.810;11.892;2023-03-01T11:56:55;14.90;99.90
8180;DHT22;4131;48.810;11.892;2023-03-01T11:59:45;14.40;99.90
8180;DHT22;4131;48.810;11.892;2023-03-01T12:02:46;13.80;99.90
8180;DHT22;4131;48.810;11.892;2023-03-01T12:06:00;14.30;99.90
8180;DHT22;4131;48.810;11.892;2023-03-01T12:08:37;14.20;99.90
8180;DHT22;4131;48.810;11.892;2023-03-01T12:11:16;14.70;99.90
8180;DHT22;4131;48.810;11.892;2023-03-01T12:14:02;14.30;99.90
8180;DHT22;4131;48.810;11.892;2023-03-01T12:16:56;14.10;99.90
8180;DHT22;4131;48.810;11.892;2023-03-01T12:19:38;14.60;99.90
8180;DHT22;4131;48.810;11.892;2023-03-01T12:22:21;14.90;99.90
8180;DHT22;4131;48.810;11.892;2023-03-01T12:25:15;15.00;99.90
8180;DHT22;4131;48.810;11.892;2023-03-01T12:28:09;14.50;99.90
8180;DHT22;4131;48.810;11.892;2023-03-01T12:30:54;15.60;99.90
8180;DHT22;4131;48.810;11.892;2023-03-01T12:33:32;15.80;99.90
8180;DHT22;4131;48.810;11.892;2023-03-01T12:36:19;16.00;99.90
8180;DHT22;4131;48.810;11.892;2023-03-01T12:38:59;15.70;99.90
8180;DHT22;4131;48.810;11.892;2023-03-01T12:41:43;14.90;99.90
8180;DHT22;4131;48.810;11.892;2023-03-01T12:44:31;14.60;99.90
8180;DHT22;4131;48.810;11.892;2023-03-01T12:47:31;14.50;99.90
8180;DHT22;4131;48.810;11.892;2023-03-01T12:50:12;15.50;99.90
8180;DHT22;4131;48.810;11.892;2023-03-01T12:52:44;15.80;99.90
8180;DHT22;4131;48.810;11.892;2023-03-01T12:55:23;15.00;99.90
8180;DHT22;4131;48.810;11.892;2023-03-01T12:58:00;15.20;99.90
8180;DHT22;4131;48.810;11.892;2023-03-01T13:00:32;15.70;99.90
8180;DHT22;4131;48.810;11.892;2023-03-01T13:03:13;15.90;99.90
8180;DHT22;4131;48.810;11.892;2023-03-01T13:05:56;16.00;99.90
8180;DHT22;4131;48.810;11.892;2023-03-01T13:08:33;15.90;99.90
8180;DHT22;4131;48.810;11.892;2023-03-01T13:11:06;16.70;99.90
8180;DHT22;4131;48.810;11.892;2023-03-01T13:13:39;17.00;99.90
8180;DHT22;4131;48.810;11.892;2023-03-01T13:16:39;15.30;99.90
8180;DHT22;4131;48.810;11.892;2023-03-01T13:19:13;15.10;99.90
8180;DHT22;4131;48.810;11.892;2023-03-01T13:21:45;15.00;99.90
8180;DHT22;4131;48.810;11.892;2023-03-01T13:24:24;15.10;99.90
8180;DHT22;4131;48.810;11.892;2023-03-01T13:27:22;14.60;99.90
8180;DHT22;4131;48.810;11.892;2023-03-01T13:29:57;15.20;99.90
8180;DHT22;4131;48.810;11.892;2023-03-01T13:32:31;15.60;99.90
8180;DHT22;4131;48.810;11.892;2023-03-01T13:35:42;16.00;99.90
8180;DHT22;4131;48.810;11.892;2023-03-01T13:38:37;16.40;99.90
8180;DHT22;4131;48.810;11.892;2023-03-01T13:41:06;16.20;99.90
8180;DHT22;4131;48.810;11.892;2023-03-01T13:43:36;16.20;99.90
8180;DHT22;4131;48.810;11.892;2023-03-01T13:46:10;16.20;99.90
8180;DHT22;4131;48.810;11.892;2023-03-01T13:48:40;16.00;99.90
8180;DHT22;4131;48.810;11.892;2023-03-01T13:51:10;15.70;99.90
8180;DHT22;4131;48.810;11.892;2023-03-01T13:53:43;14.50;99.90
8180;DHT22;4131;48.810;11.892;2023-03-01T13:56:15;14.30;99.90
8180;DHT22;4131;48.810;11.892;2023-03-01T13:58:49;13.90;99.90
8180;DHT22;4131;48.810;11.892;2023-03-01T14:01:24;14.20;99.90
8180;DHT22;4131;48.810;11.892;2023-03-01T14:03:53;14.10;99.90
8180;DHT22;4131;48.810;11.892;2023-03-01T14:06:23;14.00;99.90
8180;DHT22;4131;48.810;11.892;2023-03-01T14:09:03;14.10;99.90
8180;DHT22;4131;48.810;11.892;2023-03-01T14:12:11;13.60;99.90
8180;DHT22;4131;48.810;11.892;2023-03-01T14:14:48;13.40;99.90
8180;DHT22;4131;48.810;11.892;2023-03-01T14:17:31;13.10;99.90
8180;DHT22;4131;48.810;11.892;2023-03-01T14:20:07;12.80;99.90
8180;DHT22;4131;48.810;11.892;2023-03-01T14:22:36;12.80;99.90
8180;DHT22;4131;48.810;11.892;2023-03-01T14:25:19;13.00;99.90
8180;DHT22;4131;48.810;11.892;2023-03-01T14:27:59;13.00;99.90
8180;DHT22;4131;48.810;11.892;2023-03-01T14:30:34;13.10;99.90
8180;DHT22;4131;48.810;11.892;2023-03-01T14:33:06;13.00;99.90
8180;DHT22;4131;48.810;11.892;2023-03-01T14:35:35;13.60;99.90
8180;DHT22;4131;48.810;11.892;2023-03-01T14:38:04;13.40;99.90
8180;DHT22;4131;48.810;11.892;2023-03-01T14:40:36;13.00;99.90
8180;DHT22;4131;48.810;11.892;2023-03-01T14:43:10;12.70;99.90
8180;DHT22;4131;48.810;11.892;2023-03-01T14:48:07;11.20;99.90
8180;DHT22;4131;48.810;11.892;2023-03-01T14:50:40;10.70;99.90
8180;DHT22;4131;48.810;11.892;2023-03-01T14:53:16;10.50;99.90
8180;DHT22;4131;48.810;11.892;2023-03-01T14:55:50;10.60;99.90
8180;DHT22;4131;48.810;11.892;2023-03-01T14:58:21;10.30;99.90
8180;DHT22;4131;48.810;11.892;2023-03-01T15:00:52;10.20;99.90
8180;DHT22;4131;48.810;11.892;2023-03-01T15:03:25;9.50;99.90
8180;DHT22;4131;48.810;11.892;2023-03-01T15:05:55;9.20;99.90
8180;DHT22;4131;48.810;11.892;2023-03-01T15:08:25;8.80;99.90
8180;DHT22;4131;48.810;11.892;2023-03-01T15:11:03;8.70;99.90
8180;DHT22;4131;48.810;11.892;2023-03-01T15:13:35;8.70;99.90
8180;DHT22;4131;48.810;11.892;2023-03-01T15:16:06;8.70;99.90
8180;DHT22;4131;48.810;11.892;2023-03-01T15:18:36;8.50;99.90
8180;DHT22;4131;48.810;11.892;2023-03-01T15:21:07;8.30;99.90
8180;DHT22;4131;48.810;11.892;2023-03-01T15:23:37;8.00;99.90
8180;DHT22;4131;48.810;11.892;2023-03-01T15:26:22;7.90;99.90
8180;DHT22;4131;48.810;11.892;2023-03-01T15:28:56;8.90;99.90
8180;DHT22;4131;48.810;11.892;2023-03-01T15:31:27;7.60;99.90
8180;DHT22;4131;48.810;11.892;2023-03-01T15:34:19;7.50;99.90
8180;DHT22;4131;48.810;11.892;2023-03-01T15:36:49;7.50;99.90
8180;DHT22;4131;48.810;11.892;2023-03-01T15:39:31;7.40;99.90
8180;DHT22;4131;48.810;11.892;2023-03-01T15:42:07;7.30;99.90
8180;DHT22;4131;48.810;11.892;2023-03-01T15:44:38;7.10;99.90
8180;DHT22;4131;48.810;11.892;2023-03-01T15:47:24;7.00;99.90
8180;DHT22;4131;48.810;11.892;2023-03-01T15:49:54;6.90;99.90
8180;DHT22;4131;48.810;11.892;2023-03-01T15:52:25;6.90;99.90
8180;DHT22;4131;48.810;11.892;2023-03-01T15:54:58;6.80;99.90
8180;DHT22;4131;48.810;11.892;2023-03-01T15:57:28;6.70;99.90
8180;DHT22;4131;48.810;11.892;2023-03-01T16:02:25;6.50;99.90
8180;DHT22;4131;48.810;11.892;2023-03-01T16:04:54;6.50;99.90
8180;DHT22;4131;48.810;11.892;2023-03-01T16:07:23;6.50;99.90
8180;DHT22;4131;48.810;11.892;2023-03-01T16:09:54;6.40;99.90
8180;DHT22;4131;48.810;11.892;2023-03-01T16:12:22;6.40;99.90
8180;DHT22;4131;48.810;11.892;2023-03-01T16:14:52;6.20;99.90
8180;DHT22;4131;48.810;11.892;2023-03-01T16:17:20;6.20;99.90
8180;DHT22;4131;48.810;11.892;2023-03-01T16:19:48;6.10;99.90
8180;DHT22;4131;48.810;11.892;2023-03-01T16:22:17;6.00;99.90
8180;DHT22;4131;48.810;11.892;2023-03-01T16:24:51;5.90;99.90
8180;DHT22;4131;48.810;11.892;2023-03-01T16:27:19;5.80;99.90
8180;DHT22;4131;48.810;11.892;2023-03-01T16:29:47;5.80;99.90
8180;DHT22;4131;48.810;11.892;2023-03-01T16:32:17;5.60;99.90
8180;DHT22;4131;48.810;11.892;2023-03-01T16:34:45;5.50;99.90
8180;DHT22;4131;48.810;11.892;2023-03-01T16:37:16;5.30;99.90
8180;DHT22;4131;48.810;11.892;2023-03-01T16:39:45;5.40;99.90
8180;DHT22;4131;48.810;11.892;2023-03-01T16:42:16;5.30;99.90
8180;DHT22;4131;48.810;11.892;2023-03-01T16:49:43;5.00;99.90
8180;DHT22;4131;48.810;11.892;2023-03-01T16:54:40;4.80;99.90
8180;DHT22;4131;48.810;11.892;2023-03-01T16:57:08;4.70;99.90
8180;DHT22;4131;48.810;11.892;2023-03-01T17:02:05;4.50;99.90
8180;DHT22;4131;48.810;11.892;2023-03-01T17:04:35;4.60;99.90
8180;DHT22;4131;48.810;11.892;2023-03-01T17:07:04;4.50;99.90
8180;DHT22;4131;48.810;11.892;2023-03-01T17:09:35;4.40;99.90
8180;DHT22;4131;48.810;11.892;2023-03-01T17:12:03;4.40;99.90
8180;DHT22;4131;48.810;11.892;2023-03-01T17:14:31;4.30;99.90
8180;DHT22;4131;48.810;11.892;2023-03-01T17:17:00;4.20;99.90
8180;DHT22;4131;48.810;11.892;2023-03-01T17:21:58;4.20;99.90
8180;DHT22;4131;48.810;11.892;2023-03-01T17:24:31;4.20;99.90
8180;DHT22;4131;48.810;11.892;2023-03-01T17:29:28;4.00;99.90
8180;DHT22;4131;48.810;11.892;2023-03-01T17:31:57;3.90;99.90
8180;DHT22;4131;48.810;11.892;2023-03-01T17:34:25;3.80;99.90
8180;DHT22;4131;48.810;11.892;2023-03-01T17:36:53;3.70;99.90
8180;DHT22;4131;48.810;11.892;2023-03-01T17:39:21;3.70;99.90
8180;DHT22;4131;48.810;11.892;2023-03-01T17:41:56;3.60;99.90
8180;DHT22;4131;48.810;11.892;2023-03-01T17:44:25;3.60;99.90
8180;DHT22;4131;48.810;11.892;2023-03-01T17:49:22;3.50;99.90
8180;DHT22;4131;48.810;11.892;2023-03-01T17:54:18;3.40;99.90
8180;DHT22;4131;48.810;11.892;2023-03-01T17:56:46;3.30;99.90
8180;DHT22;4131;48.810;11.892;2023-03-01T17:59:16;3.30;99.90
8180;DHT22;4131;48.810;11.892;2023-03-01T18:01:44;3.30;99.90
8180;DHT22;4131;48.810;11.892;2023-03-01T18:04:13;3.20;99.90
8180;DHT22;4131;48.810;11.892;2023-03-01T18:06:41;3.20;99.90
8180;DHT22;4131;48.810;11.892;2023-03-01T18:09:09;3.10;99.90
8180;DHT22;4131;48.810;11.892;2023-03-01T18:11:37;3.10;99.90
8180;DHT22;4131;48.810;11.892;2023-03-01T18:14:07;3.00;99.90
8180;DHT22;4131;48.810;11.892;2023-03-01T18:16:37;2.90;99.90
8180;DHT22;4131;48.810;11.892;2023-03-01T18:19:05;3.00;99.90
8180;DHT22;4131;48.810;11.892;2023-03-01T18:21:33;2.80;99.90
8180;DHT22;4131;48.810;11.892;2023-03-01T18:24:02;2.70;99.90
8180;DHT22;4131;48.810;11.892;2023-03-01T18:26:30;2.70;99.90
8180;DHT22;4131;48.810;11.892;2023-03-01T18:31:29;2.60;99.90
8180;DHT22;4131;48.810;11.892;2023-03-01T18:34:01;2.50;99.90
8180;DHT22;4131;48.810;11.892;2023-03-01T18:36:31;2.50;99.90
8180;DHT22;4131;48.810;11.892;2023-03-01T18:39:01;2.40;99.90
8180;DHT22;4131;48.810;11.892;2023-03-01T18:41:29;2.40;99.90
8180;DHT22;4131;48.810;11.892;2023-03-01T18:43:59;2.30;99.90
8180;DHT22;4131;48.810;11.892;2023-03-01T18:46:28;2.30;99.90
8180;DHT22;4131;48.810;11.892;2023-03-01T18:48:57;2.20;99.90
8180;DHT22;4131;48.810;11.892;2023-03-01T18:51:27;2.10;99.90
8180;DHT22;4131;48.810;11.892;2023-03-01T18:53:57;2.10;99.90
8180;DHT22;4131;48.810;11.892;2023-03-01T18:56:25;2.00;99.90
8180;DHT22;4131;48.810;11.892;2023-03-01T18:58:54;2.00;99.90
8180;DHT22;4131;48.810;11.892;2023-03-01T19:01:24;2.00;99.90
8180;DHT22;4131;48.810;11.892;2023-03-01T19:03:53;1.90;99.90
8180;DHT22;4131;48.810;11.892;2023-03-01T19:06:23;1.80;99.90
8180;DHT22;4131;48.810;11.892;2023-03-01T19:08:53;1.80;99.90
8180;DHT22;4131;48.810;11.892;2023-03-01T19:11:21;1.80;99.90
8180;DHT22;4131;48.810;11.892;2023-03-01T19:13:53;1.70;99.90
8180;DHT22;4131;48.810;11.892;2023-03-01T19:16:23;1.70;99.90
8180;DHT22;4131;48.810;11.892;2023-03-01T19:18:55;1.60;99.90
8180;DHT22;4131;48.810;11.892;2023-03-01T19:21:27;1.60;99.90
8180;DHT22;4131;48.810;11.892;2023-03-01T19:23:58;1.70;99.90
8180;DHT22;4131;48.810;11.892;2023-03-01T19:26:29;1.60;99.90
8180;DHT22;4131;48.810;11.892;2023-03-01T19:28:58;1.60;99.90
8180;DHT22;4131;48.810;11.892;2023-03-01T19:31:28;1.50;99.90
8180;DHT22;4131;48.810;11.892;2023-03-01T19:33:58;1.50;99.90
8180;DHT22;4131;48.810;11.892;2023-03-01T19:36:42;1.40;99.90
8180;DHT22;4131;48.810;11.892;2023-03-01T19:39:12;1.40;99.90
8180;DHT22;4131;48.810;11.892;2023-03-01T19:41:41;1.30;99.90
8180;DHT22;4131;48.810;11.892;2023-03-01T19:44:10;1.30;99.90
8180;DHT22;4131;48.810;11.892;2023-03-01T19:46:38;1.20;99.90
8180;DHT22;4131;48.810;11.892;2023-03-01T19:51:35;1.20;99.90
8180;DHT22;4131;48.810;11.892;2023-03-01T19:56:37;1.10;99.90
8180;DHT22;4131;48.810;11.892;2023-03-01T19:59:06;1.20;99.90
8180;DHT22;4131;48.810;11.892;2023-03-01T20:01:34;1.10;99.90
8180;DHT22;4131;48.810;11.892;2023-03-01T20:06:32;1.10;99.90